Chie Maru No.10 — JD2376 — position and weather

sailwx.info

Track history (hours):
 
Tides and Currents Weather Stations Pressure Air Temp Water Temp Dewpoint Dewpoint Depression Visibility Wind Speed Wind Dir Waves Ship Positions

Chie Maru No.10

Last reported at 2016-Sep-27 14:05 UTC. Time now 2016-Oct-01 01:39 UTC.
Position N 35°03' E 138°32'.

Length 72 m; draft 4.8 m.

Type: Ship. MMSI: 431000147.

Date/timePositionNaut miles runAvg speedWind from/ knotsBaromVisibWave heightAir tempDewpointWater temp
2016-Sep-27 14:05N 35°03' E 138°32'78 5.7
2016-Sep-27 00:33N 35°30' E 140°02'11 2.8
2016-Sep-26 20:33N 35°41' E 139°59'0 0.1
2016-Sep-26 19:33N 35°41' E 139°59'0 0.0
2016-Sep-26 15:33N 35°41' E 139°59'0 0.0
2016-Sep-26 13:33N 35°41' E 139°59'0 0.0
2016-Sep-26 11:33N 35°41' E 139°59'0 0.0
2016-Sep-26 08:33N 35°41' E 139°59'23 3.8
2016-Sep-26 02:33N 35°25' E 139°39'0 0.0
2016-Sep-26 01:33N 35°25' E 139°39'0 0.0
2016-Sep-26 00:33N 35°25' E 139°39'0 0.1
2016-Sep-25 21:34N 35°24' E 139°39'  
2016-Sep-23 06:33N 35°28' E 139°47'3 1.4
2016-Sep-23 04:33N 35°30' E 139°45'0 0.0
2016-Sep-23 03:33N 35°30' E 139°45'0 0.0
2016-Sep-23 02:33N 35°30' E 139°45'3 2.6
2016-Sep-23 01:33N 35°29' E 139°48'0 0.0
2016-Sep-23 00:33N 35°29' E 139°48'0 0.0
2016-Sep-22 23:27N 35°29' E 139°48'0 0.0
2016-Sep-22 20:33N 35°29' E 139°48'0 0.1
2016-Sep-22 12:33N 35°28' E 139°48'9 0.3
2016-Sep-21 09:33N 35°35' E 139°55'0 0.0
2016-Sep-21 08:30N 35°35' E 139°55'0 0.0
2016-Sep-21 03:30N 35°35' E 139°55'0 0.0
2016-Sep-21 02:30N 35°35' E 139°55'0 0.0
2016-Sep-20 17:33N 35°35' E 139°55'0 0.0
2016-Sep-20 14:23N 35°35' E 139°55'0 0.1
2016-Sep-20 13:33N 35°35' E 139°55'8 2.8
2016-Sep-20 10:33N 35°31' E 139°46'0 0.0
2016-Sep-20 08:33N 35°31' E 139°46'0 0.4
2016-Sep-20 07:33N 35°31' E 139°46'3 3.4
2016-Sep-20 06:32N 35°31' E 139°50'1 0.1
2016-Sep-20 02:33N 35°30' E 139°51'11 3.8
2016-Sep-19 23:33N 35°33' E 140°05'8 2.0
2016-Sep-19 19:32N 35°35' E 139°55'0 0.0
2016-Sep-19 18:32N 35°35' E 139°55'0 0.0
2016-Sep-19 16:32N 35°35' E 139°55'0 0.0
2016-Sep-19 14:32N 35°35' E 139°55'0 0.0
2016-Sep-19 13:32N 35°35' E 139°55'0 0.0
2016-Sep-19 12:32N 35°35' E 139°55'0 0.0
2016-Sep-19 11:29N 35°35' E 139°55'0 0.0
2016-Sep-19 09:08N 35°35' E 139°55'0 0.0
2016-Sep-19 07:32N 35°35' E 139°55'0 0.0
2016-Sep-19 06:29N 35°35' E 139°55'6 2.1
2016-Sep-19 03:33N 35°41' E 139°56'0 0.0
2016-Sep-19 02:33N 35°41' E 139°56'9 4.7
2016-Sep-19 00:33N 35°31' E 139°54'  
Track history (hours):
 
Tides and Currents Weather Stations Pressure Air Temp Water Temp Dewpoint Dewpoint Depression Visibility Wind Speed Wind Dir Waves Ship Positions

Chie Maru No.10

Last reported at 2016-Sep-27 14:05 UTC. Time now 2016-Oct-01 01:39 UTC.
Position N 35°03' E 138°32'.

Length 72 m; draft 4.8 m.

Type: Ship. MMSI: 431000147.

Date/timePositionNaut miles runAvg speedWind from/ knotsBaromVisibWave heightAir tempDewpointWater temp
2016-Sep-27 14:05N 35°03' E 138°32'78 5.7
2016-Sep-27 00:33N 35°30' E 140°02'11 2.8
2016-Sep-26 20:33N 35°41' E 139°59'0 0.1
2016-Sep-26 19:33N 35°41' E 139°59'0 0.0
2016-Sep-26 15:33N 35°41' E 139°59'0 0.0
2016-Sep-26 13:33N 35°41' E 139°59'0 0.0
2016-Sep-26 11:33N 35°41' E 139°59'0 0.0
2016-Sep-26 08:33N 35°41' E 139°59'23 3.8
2016-Sep-26 02:33N 35°25' E 139°39'0 0.0
2016-Sep-26 01:33N 35°25' E 139°39'0 0.0
2016-Sep-26 00:33N 35°25' E 139°39'0 0.1
2016-Sep-25 21:34N 35°24' E 139°39'  
2016-Sep-23 06:33N 35°28' E 139°47'3 1.4
2016-Sep-23 04:33N 35°30' E 139°45'0 0.0
2016-Sep-23 03:33N 35°30' E 139°45'0 0.0
2016-Sep-23 02:33N 35°30' E 139°45'3 2.6
2016-Sep-23 01:33N 35°29' E 139°48'0 0.0
2016-Sep-23 00:33N 35°29' E 139°48'0 0.0
2016-Sep-22 23:27N 35°29' E 139°48'0 0.0
2016-Sep-22 20:33N 35°29' E 139°48'0 0.1
2016-Sep-22 12:33N 35°28' E 139°48'9 0.3
2016-Sep-21 09:33N 35°35' E 139°55'0 0.0
2016-Sep-21 08:30N 35°35' E 139°55'0 0.0
2016-Sep-21 03:30N 35°35' E 139°55'0 0.0
2016-Sep-21 02:30N 35°35' E 139°55'0 0.0
2016-Sep-20 17:33N 35°35' E 139°55'0 0.0
2016-Sep-20 14:23N 35°35' E 139°55'0 0.1
2016-Sep-20 13:33N 35°35' E 139°55'8 2.8
2016-Sep-20 10:33N 35°31' E 139°46'0 0.0
2016-Sep-20 08:33N 35°31' E 139°46'0 0.4
2016-Sep-20 07:33N 35°31' E 139°46'3 3.4
2016-Sep-20 06:32N 35°31' E 139°50'1 0.1
2016-Sep-20 02:33N 35°30' E 139°51'11 3.8
2016-Sep-19 23:33N 35°33' E 140°05'8 2.0
2016-Sep-19 19:32N 35°35' E 139°55'0 0.0
2016-Sep-19 18:32N 35°35' E 139°55'0 0.0
2016-Sep-19 16:32N 35°35' E 139°55'0 0.0
2016-Sep-19 14:32N 35°35' E 139°55'0 0.0
2016-Sep-19 13:32N 35°35' E 139°55'0 0.0
2016-Sep-19 12:32N 35°35' E 139°55'0 0.0
2016-Sep-19 11:29N 35°35' E 139°55'0 0.0
2016-Sep-19 09:08N 35°35' E 139°55'0 0.0
2016-Sep-19 07:32N 35°35' E 139°55'0 0.0
2016-Sep-19 06:29N 35°35' E 139°55'6 2.1
2016-Sep-19 03:33N 35°41' E 139°56'0 0.0
2016-Sep-19 02:33N 35°41' E 139°56'9 4.7
2016-Sep-19 00:33N 35°31' E 139°54'  

Dump ship's entire track history